Startpagina
METAR-TAF:

METAR-TAF

Vliegvelden :

Luchthaven Athene

Athene, Griekenland

breedte: 37-56N, lengte: 023-56E, hoogte: 94 m

Actueel weer

Dit bericht is 14 minuten geleden gemaakt, om 20:50 UTC
Wind 3 kt uit variabele richting
Temperatuur 20°C
Vochtigheid 56%
Druk 1018 hPa
Zicht 10 km of meer
geen wolken onder 1500 m en geen cumulonimbus

METAR: LGAV 222050Z VRB03KT CAVOK 20/11 Q1018 NOSIG

Tijdstip: 00:04 (21:04 UTC)

Verwachting

Dit bericht is 4 uur en het 4 minuten geleden gemaakt, om 17:00 UTC
Verwachting geldig van 22 om 18 UTC tot 23 om 18 UTC
Wind 13 kt uit het noordnoordoosten
Zicht 10 km of meer
Weinig wolken op 3000 ft
Tijdelijke
van 23 om 06 UTC tot 23 om 14 UTC
Wind 13 kt uit het noordnoordoosten met uitschieters tot 23 kt

TAF: LGAV 221700Z 2218/2318 03013KT 9999 FEW030 TEMPO 2306/2314 03013G23KT

Waarnemingen en weersverwachtingen van meer dan 4000 vliegvelden (METAR en TAF).

De beschikbare stations zijn de gele en rode punten op de kaart.

Ga met uw muis naar het station om de naam te zien.

Klik dan om waarnemingen en weersverwachtingen te zien.

kaart wijzigen: klik op de groene knoppen met een zwart kruis om in te zoomen, op de groene knop met een streepje om uit te zoomen of op de groene pijlen voor aangrenzende kaarten.


METAR-TAF: